sensor_id;sensor_type;location;lat;lon;timestamp;pressure;altitude;pressure_sealevel;temperature;humidity
68329;BME280;55182;56.864;60.554;2023-02-10T00:00:04;76834.16;;;-143.60;79.19
68329;BME280;55182;56.864;60.554;2023-02-10T00:02:30;76842.19;;;-143.60;79.34
68329;BME280;55182;56.864;60.554;2023-02-10T00:04:55;76840.19;;;-143.60;79.52
68329;BME280;55182;56.864;60.554;2023-02-10T00:07:21;76844.19;;;-143.60;79.34
68329;BME280;55182;56.864;60.554;2023-02-10T00:09:47;76850.22;;;-143.60;79.39
68329;BME280;55182;56.864;60.554;2023-02-10T00:12:12;76842.19;;;-143.60;79.63
68329;BME280;55182;56.864;60.554;2023-02-10T00:14:38;76842.19;;;-143.60;79.71
68329;BME280;55182;56.864;60.554;2023-02-10T00:17:03;76846.22;;;-143.60;79.50
68329;BME280;55182;56.864;60.554;2023-02-10T00:19:29;76834.16;;;-143.60;79.54
68329;BME280;55182;56.864;60.554;2023-02-10T00:21:54;76836.16;;;-143.60;79.52
68329;BME280;55182;56.864;60.554;2023-02-10T00:24:20;76830.13;;;-143.60;79.50
68329;BME280;55182;56.864;60.554;2023-02-10T00:26:46;76838.16;;;-143.60;79.56
68329;BME280;55182;56.864;60.554;2023-02-10T00:29:11;76834.16;;;-143.60;79.58
68329;BME280;55182;56.864;60.554;2023-02-10T00:31:38;76834.16;;;-143.60;79.79
68329;BME280;55182;56.864;60.554;2023-02-10T00:34:03;76838.16;;;-143.60;79.83
68329;BME280;55182;56.864;60.554;2023-02-10T00:36:29;76838.16;;;-143.60;79.83
68329;BME280;55182;56.864;60.554;2023-02-10T00:38:54;76842.19;;;-143.60;79.69
68329;BME280;55182;56.864;60.554;2023-02-10T00:41:20;76838.16;;;-143.60;79.74
68329;BME280;55182;56.864;60.554;2023-02-10T00:43:46;76834.16;;;-143.60;79.76
68329;BME280;55182;56.864;60.554;2023-02-10T00:46:12;76846.22;;;-143.60;79.56
68329;BME280;55182;56.864;60.554;2023-02-10T00:48:38;76846.22;;;-143.60;79.83
68329;BME280;55182;56.864;60.554;2023-02-10T00:51:04;76838.16;;;-143.60;79.65
68329;BME280;55182;56.864;60.554;2023-02-10T00:53:30;76850.22;;;-143.60;79.68
68329;BME280;55182;56.864;60.554;2023-02-10T00:55:55;76842.19;;;-143.60;79.74
68329;BME280;55182;56.864;60.554;2023-02-10T00:58:22;76846.22;;;-143.60;79.55
68329;BME280;55182;56.864;60.554;2023-02-10T01:00:47;76834.16;;;-143.60;79.57
68329;BME280;55182;56.864;60.554;2023-02-10T01:03:13;76842.19;;;-143.60;79.81
68329;BME280;55182;56.864;60.554;2023-02-10T01:05:38;76838.16;;;-143.60;79.91
68329;BME280;55182;56.864;60.554;2023-02-10T01:08:04;76842.19;;;-143.60;79.89
68329;BME280;55182;56.864;60.554;2023-02-10T01:10:31;76844.19;;;-143.60;79.96
68329;BME280;55182;56.864;60.554;2023-02-10T01:12:56;76834.16;;;-143.60;79.94
68329;BME280;55182;56.864;60.554;2023-02-10T01:15:22;76854.25;;;-143.60;79.76
68329;BME280;55182;56.864;60.554;2023-02-10T01:17:47;76854.25;;;-143.60;79.85
68329;BME280;55182;56.864;60.554;2023-02-10T01:20:13;76852.25;;;-143.60;79.98
68329;BME280;55182;56.864;60.554;2023-02-10T01:22:39;76850.22;;;-143.60;79.70
68329;BME280;55182;56.864;60.554;2023-02-10T01:25:05;76846.22;;;-143.60;79.73
68329;BME280;55182;56.864;60.554;2023-02-10T01:27:30;76844.19;;;-143.60;79.82
68329;BME280;55182;56.864;60.554;2023-02-10T01:29:56;76846.22;;;-143.60;79.96
68329;BME280;55182;56.864;60.554;2023-02-10T01:32:21;76844.19;;;-143.60;79.82
68329;BME280;55182;56.864;60.554;2023-02-10T01:34:46;76842.19;;;-143.60;80.07
68329;BME280;55182;56.864;60.554;2023-02-10T01:37:12;76842.19;;;-143.60;79.95
68329;BME280;55182;56.864;60.554;2023-02-10T01:39:37;76846.22;;;-143.60;80.01
68329;BME280;55182;56.864;60.554;2023-02-10T01:42:03;76846.22;;;-143.60;80.04
68329;BME280;55182;56.864;60.554;2023-02-10T01:46:54;76848.22;;;-143.60;80.12
68329;BME280;55182;56.864;60.554;2023-02-10T01:49:22;76854.25;;;-143.60;80.18
68329;BME280;55182;56.864;60.554;2023-02-10T01:51:51;76850.22;;;-143.60;80.21
68329;BME280;55182;56.864;60.554;2023-02-10T01:54:18;76860.28;;;-143.60;80.27
68329;BME280;55182;56.864;60.554;2023-02-10T01:56:45;76854.25;;;-143.60;80.17
68329;BME280;55182;56.864;60.554;2023-02-10T01:59:12;76854.25;;;-143.60;80.11
68329;BME280;55182;56.864;60.554;2023-02-10T02:01:37;76860.28;;;-143.60;80.31
68329;BME280;55182;56.864;60.554;2023-02-10T02:04:03;76846.22;;;-143.60;80.42
68329;BME280;55182;56.864;60.554;2023-02-10T02:06:30;76850.22;;;-143.60;80.33
68329;BME280;55182;56.864;60.554;2023-02-10T02:08:57;76850.22;;;-143.60;80.27
68329;BME280;55182;56.864;60.554;2023-02-10T02:11:30;76846.22;;;-143.60;80.45
68329;BME280;55182;56.864;60.554;2023-02-10T02:26:44;76842.19;;;-143.60;80.82
68329;BME280;55182;56.864;60.554;2023-02-10T02:31:45;76842.19;;;-143.60;81.03
68329;BME280;55182;56.864;60.554;2023-02-10T02:34:16;76830.13;;;-143.60;81.29
68329;BME280;55182;56.864;60.554;2023-02-10T02:37:01;76830.13;;;-143.60;81.18
68329;BME280;55182;56.864;60.554;2023-02-10T02:39:27;76838.16;;;-143.60;81.50
68329;BME280;55182;56.864;60.554;2023-02-10T02:42:04;76830.13;;;-143.60;81.48
68329;BME280;55182;56.864;60.554;2023-02-10T02:44:36;76830.13;;;-143.60;81.66
68329;BME280;55182;56.864;60.554;2023-02-10T02:47:39;76830.13;;;-143.60;81.54
68329;BME280;55182;56.864;60.554;2023-02-10T02:49:57;76830.13;;;-143.60;81.79
68329;BME280;55182;56.864;60.554;2023-02-10T02:55:07;76826.09;;;-143.60;81.72
68329;BME280;55182;56.864;60.554;2023-02-10T02:57:45;76830.13;;;-143.60;81.99
68329;BME280;55182;56.864;60.554;2023-02-10T03:00:15;76830.13;;;-143.60;82.14
68329;BME280;55182;56.864;60.554;2023-02-10T03:02:41;76828.13;;;-143.60;82.17
68329;BME280;55182;56.864;60.554;2023-02-10T03:05:08;76826.09;;;-143.60;81.99
68329;BME280;55182;56.864;60.554;2023-02-10T03:07:34;76826.09;;;-143.60;82.25
68329;BME280;55182;56.864;60.554;2023-02-10T03:09:59;76822.09;;;-143.60;82.20
68329;BME280;55182;56.864;60.554;2023-02-10T03:12:25;76820.06;;;-143.60;82.16
68329;BME280;55182;56.864;60.554;2023-02-10T03:14:51;76830.13;;;-143.60;82.28
68329;BME280;55182;56.864;60.554;2023-02-10T03:17:16;76828.13;;;-143.60;82.32
68329;BME280;55182;56.864;60.554;2023-02-10T03:19:41;76820.06;;;-143.60;82.39
68329;BME280;55182;56.864;60.554;2023-02-10T03:22:07;76828.13;;;-143.60;82.40
68329;BME280;55182;56.864;60.554;2023-02-10T03:24:32;76816.06;;;-143.60;82.53
68329;BME280;55182;56.864;60.554;2023-02-10T03:26:58;76818.06;;;-143.60;82.58
68329;BME280;55182;56.864;60.554;2023-02-10T03:29:23;76818.06;;;-143.60;82.24
68329;BME280;55182;56.864;60.554;2023-02-10T03:31:49;76814.06;;;-143.60;82.48
68329;BME280;55182;56.864;60.554;2023-02-10T03:34:14;76816.06;;;-143.60;82.40
68329;BME280;55182;56.864;60.554;2023-02-10T03:36:39;76818.06;;;-143.60;82.56
68329;BME280;55182;56.864;60.554;2023-02-10T03:39:05;76816.06;;;-143.60;82.39
68329;BME280;55182;56.864;60.554;2023-02-10T03:41:30;76816.06;;;-143.60;82.41
68329;BME280;55182;56.864;60.554;2023-02-10T03:43:56;76810.03;;;-143.60;82.53
68329;BME280;55182;56.864;60.554;2023-02-10T03:46:21;76814.06;;;-143.60;82.27
68329;BME280;55182;56.864;60.554;2023-02-10T03:48:47;76814.06;;;-143.60;82.37
68329;BME280;55182;56.864;60.554;2023-02-10T03:51:12;76802.00;;;-143.60;82.55
68329;BME280;55182;56.864;60.554;2023-02-10T03:53:38;76806.00;;;-143.60;82.22
68329;BME280;55182;56.864;60.554;2023-02-10T03:56:04;76810.03;;;-143.60;82.20
68329;BME280;55182;56.864;60.554;2023-02-10T03:58:30;76797.97;;;-143.60;82.00
68329;BME280;55182;56.864;60.554;2023-02-10T04:00:55;76797.97;;;-143.60;81.98
68329;BME280;55182;56.864;60.554;2023-02-10T04:03:21;76797.97;;;-143.60;82.05
68329;BME280;55182;56.864;60.554;2023-02-10T04:05:46;76793.94;;;-143.60;81.83
68329;BME280;55182;56.864;60.554;2023-02-10T04:08:12;76806.00;;;-143.60;81.95
68329;BME280;55182;56.864;60.554;2023-02-10T04:10:37;76806.00;;;-143.60;81.68
68329;BME280;55182;56.864;60.554;2023-02-10T04:13:03;76791.94;;;-143.60;81.85
68329;BME280;55182;56.864;60.554;2023-02-10T04:15:28;76785.91;;;-143.60;81.57
68329;BME280;55182;56.864;60.554;2023-02-10T04:17:54;76787.91;;;-143.60;81.46
68329;BME280;55182;56.864;60.554;2023-02-10T04:20:19;76785.91;;;-143.60;81.76
68329;BME280;55182;56.864;60.554;2023-02-10T04:22:45;76779.88;;;-143.60;81.52
68329;BME280;55182;56.864;60.554;2023-02-10T04:25:10;76781.91;;;-143.60;81.44
68329;BME280;55182;56.864;60.554;2023-02-10T04:27:36;76775.88;;;-143.60;81.52
68329;BME280;55182;56.864;60.554;2023-02-10T04:30:01;76777.88;;;-143.60;81.38
68329;BME280;55182;56.864;60.554;2023-02-10T04:32:26;76785.91;;;-143.60;81.34
68329;BME280;55182;56.864;60.554;2023-02-10T04:34:52;76767.81;;;-143.60;81.09
68329;BME280;55182;56.864;60.554;2023-02-10T04:37:17;76779.88;;;-143.60;81.29
68329;BME280;55182;56.864;60.554;2023-02-10T04:39:44;76773.84;;;-143.60;81.13
68329;BME280;55182;56.864;60.554;2023-02-10T04:42:09;76765.81;;;-143.60;81.10
68329;BME280;55182;56.864;60.554;2023-02-10T04:44:34;76765.81;;;-143.60;80.95
68329;BME280;55182;56.864;60.554;2023-02-10T04:47:00;76769.84;;;-143.60;80.70
68329;BME280;55182;56.864;60.554;2023-02-10T04:49:26;76783.91;;;-143.60;80.89
68329;BME280;55182;56.864;60.554;2023-02-10T04:51:52;76761.78;;;-143.60;80.58
68329;BME280;55182;56.864;60.554;2023-02-10T04:54:17;76763.81;;;-143.60;80.41
68329;BME280;55182;56.864;60.554;2023-02-10T04:56:43;76769.84;;;-143.60;80.52
68329;BME280;55182;56.864;60.554;2023-02-10T04:59:08;76769.84;;;-143.60;80.38
68329;BME280;55182;56.864;60.554;2023-02-10T05:01:34;76771.84;;;-143.60;80.46
68329;BME280;55182;56.864;60.554;2023-02-10T05:03:59;76761.78;;;-143.60;80.39
68329;BME280;55182;56.864;60.554;2023-02-10T05:06:25;76777.88;;;-143.60;80.51
68329;BME280;55182;56.864;60.554;2023-02-10T05:08:51;76761.78;;;-143.60;80.47
68329;BME280;55182;56.864;60.554;2023-02-10T05:11:16;76763.81;;;-143.60;80.29
68329;BME280;55182;56.864;60.554;2023-02-10T05:13:42;76769.84;;;-143.60;80.45
68329;BME280;55182;56.864;60.554;2023-02-10T05:16:08;76769.84;;;-143.60;80.36
68329;BME280;55182;56.864;60.554;2023-02-10T05:18:34;76765.81;;;-143.60;80.30
68329;BME280;55182;56.864;60.554;2023-02-10T05:20:59;76763.81;;;-143.60;80.57
68329;BME280;55182;56.864;60.554;2023-02-10T05:23:25;76753.75;;;-143.60;80.38
68329;BME280;55182;56.864;60.554;2023-02-10T05:25:51;76761.78;;;-143.60;80.28
68329;BME280;55182;56.864;60.554;2023-02-10T05:28:16;76769.84;;;-143.60;80.35
68329;BME280;55182;56.864;60.554;2023-02-10T05:30:42;76765.81;;;-143.60;80.30
68329;BME280;55182;56.864;60.554;2023-02-10T05:33:08;76759.78;;;-143.60;80.38
68329;BME280;55182;56.864;60.554;2023-02-10T05:35:33;76751.75;;;-143.60;80.61
68329;BME280;55182;56.864;60.554;2023-02-10T05:37:59;76749.75;;;-143.60;80.44
68329;BME280;55182;56.864;60.554;2023-02-10T05:40:24;76753.75;;;-143.60;80.41
68329;BME280;55182;56.864;60.554;2023-02-10T05:42:50;76753.75;;;-143.60;80.20
68329;BME280;55182;56.864;60.554;2023-02-10T05:45:15;76753.75;;;-143.60;80.32
68329;BME280;55182;56.864;60.554;2023-02-10T05:47:40;76745.72;;;-143.60;80.35
68329;BME280;55182;56.864;60.554;2023-02-10T05:50:06;76765.81;;;-143.60;80.12
68329;BME280;55182;56.864;60.554;2023-02-10T05:52:32;76753.75;;;-143.60;79.84
68329;BME280;55182;56.864;60.554;2023-02-10T05:54:58;76749.75;;;-143.60;79.99
68329;BME280;55182;56.864;60.554;2023-02-10T05:57:23;76753.75;;;-143.60;80.00
68329;BME280;55182;56.864;60.554;2023-02-10T05:59:49;76765.81;;;-143.60;80.02
68329;BME280;55182;56.864;60.554;2023-02-10T06:02:14;76757.78;;;-143.60;80.25
68329;BME280;55182;56.864;60.554;2023-02-10T06:04:40;76745.72;;;-143.60;80.41
68329;BME280;55182;56.864;60.554;2023-02-10T06:07:05;76753.75;;;-143.60;80.42
68329;BME280;55182;56.864;60.554;2023-02-10T06:09:31;76753.75;;;-143.60;80.03
68329;BME280;55182;56.864;60.554;2023-02-10T06:11:56;76745.72;;;-143.60;80.14
68329;BME280;55182;56.864;60.554;2023-02-10T06:14:21;76743.72;;;-143.60;80.07
68329;BME280;55182;56.864;60.554;2023-02-10T06:16:47;76745.72;;;-143.60;80.34
68329;BME280;55182;56.864;60.554;2023-02-10T06:19:12;76747.72;;;-143.60;80.07
68329;BME280;55182;56.864;60.554;2023-02-10T06:21:38;76741.69;;;-143.60;80.19
68329;BME280;55182;56.864;60.554;2023-02-10T06:24:03;76737.69;;;-143.60;80.07
68329;BME280;55182;56.864;60.554;2023-02-10T06:26:29;76751.75;;;-143.60;80.12
68329;BME280;55182;56.864;60.554;2023-02-10T06:28:54;76745.72;;;-143.60;80.19
68329;BME280;55182;56.864;60.554;2023-02-10T06:31:20;76737.69;;;-143.60;80.04
68329;BME280;55182;56.864;60.554;2023-02-10T06:33:46;76733.66;;;-143.60;80.28
68329;BME280;55182;56.864;60.554;2023-02-10T06:36:11;76741.69;;;-143.60;80.15
68329;BME280;55182;56.864;60.554;2023-02-10T06:38:37;76733.66;;;-143.60;80.02
68329;BME280;55182;56.864;60.554;2023-02-10T06:41:03;76733.66;;;-143.60;80.07
68329;BME280;55182;56.864;60.554;2023-02-10T06:43:29;76727.63;;;-143.60;79.93
68329;BME280;55182;56.864;60.554;2023-02-10T06:45:55;76719.59;;;-143.60;80.02
68329;BME280;55182;56.864;60.554;2023-02-10T06:48:20;76713.56;;;-143.60;80.20
68329;BME280;55182;56.864;60.554;2023-02-10T06:50:46;76713.56;;;-143.60;79.99
68329;BME280;55182;56.864;60.554;2023-02-10T06:53:11;76713.56;;;-143.60;80.01
68329;BME280;55182;56.864;60.554;2023-02-10T06:55:37;76713.56;;;-143.60;80.20
68329;BME280;55182;56.864;60.554;2023-02-10T06:58:02;76715.56;;;-143.60;79.80
68329;BME280;55182;56.864;60.554;2023-02-10T07:00:29;76729.63;;;-143.60;79.82
68329;BME280;55182;56.864;60.554;2023-02-10T07:02:54;76705.53;;;-143.60;79.81
68329;BME280;55182;56.864;60.554;2023-02-10T07:05:20;76713.56;;;-143.60;79.94
68329;BME280;55182;56.864;60.554;2023-02-10T07:07:46;76709.53;;;-143.60;79.75
68329;BME280;55182;56.864;60.554;2023-02-10T07:10:11;76705.53;;;-143.60;79.52
68329;BME280;55182;56.864;60.554;2023-02-10T07:12:37;76713.56;;;-143.60;79.45
68329;BME280;55182;56.864;60.554;2023-02-10T07:15:04;76705.53;;;-143.60;79.58
68329;BME280;55182;56.864;60.554;2023-02-10T07:17:29;76701.50;;;-143.60;79.68
68329;BME280;55182;56.864;60.554;2023-02-10T07:19:55;76697.47;;;-143.60;79.76
68329;BME280;55182;56.864;60.554;2023-02-10T07:22:20;76691.44;;;-143.60;79.46
68329;BME280;55182;56.864;60.554;2023-02-10T07:24:46;76689.44;;;-143.60;79.27
68329;BME280;55182;56.864;60.554;2023-02-10T07:27:11;76689.44;;;-143.60;79.25
68329;BME280;55182;56.864;60.554;2023-02-10T07:29:37;76687.44;;;-143.60;79.47
68329;BME280;55182;56.864;60.554;2023-02-10T07:32:03;76697.47;;;-143.60;79.30
68329;BME280;55182;56.864;60.554;2023-02-10T07:34:28;76683.41;;;-143.60;79.37
68329;BME280;55182;56.864;60.554;2023-02-10T07:36:54;76689.44;;;-143.60;79.53
68329;BME280;55182;56.864;60.554;2023-02-10T07:39:20;76689.44;;;-143.60;79.69
68329;BME280;55182;56.864;60.554;2023-02-10T07:41:45;76687.44;;;-143.60;79.78
68329;BME280;55182;56.864;60.554;2023-02-10T07:44:12;76685.44;;;-143.60;79.71
68329;BME280;55182;56.864;60.554;2023-02-10T07:46:38;76689.44;;;-143.60;79.70
68329;BME280;55182;56.864;60.554;2023-02-10T07:49:03;76693.47;;;-143.60;79.73
68329;BME280;55182;56.864;60.554;2023-02-10T07:51:29;76695.47;;;-143.60;79.71
68329;BME280;55182;56.864;60.554;2023-02-10T07:53:54;76689.44;;;-143.60;80.01
68329;BME280;55182;56.864;60.554;2023-02-10T07:56:20;76691.44;;;-143.60;80.03
68329;BME280;55182;56.864;60.554;2023-02-10T07:58:46;76685.44;;;-143.60;79.84
68329;BME280;55182;56.864;60.554;2023-02-10T08:01:12;76685.44;;;-143.60;79.56
68329;BME280;55182;56.864;60.554;2023-02-10T08:03:37;76687.44;;;-143.60;79.71
68329;BME280;55182;56.864;60.554;2023-02-10T08:06:03;76683.41;;;-143.60;79.75
68329;BME280;55182;56.864;60.554;2023-02-10T08:08:28;76677.38;;;-143.60;79.98
68329;BME280;55182;56.864;60.554;2023-02-10T08:10:54;76687.44;;;-143.60;79.92
68329;BME280;55182;56.864;60.554;2023-02-10T08:13:19;76675.38;;;-143.60;79.98
68329;BME280;55182;56.864;60.554;2023-02-10T08:15:45;76681.41;;;-143.60;79.81
68329;BME280;55182;56.864;60.554;2023-02-10T08:18:10;76687.44;;;-143.60;79.82
68329;BME280;55182;56.864;60.554;2023-02-10T08:20:35;76677.38;;;-143.60;80.00
68329;BME280;55182;56.864;60.554;2023-02-10T08:23:01;76677.38;;;-143.60;79.96
68329;BME280;55182;56.864;60.554;2023-02-10T08:25:26;76677.38;;;-143.60;79.79
68329;BME280;55182;56.864;60.554;2023-02-10T08:27:52;76669.34;;;-143.60;79.76
68329;BME280;55182;56.864;60.554;2023-02-10T08:30:17;76677.38;;;-143.60;79.79
68329;BME280;55182;56.864;60.554;2023-02-10T08:32:44;76675.38;;;-143.60;80.11
68329;BME280;55182;56.864;60.554;2023-02-10T08:35:10;76673.38;;;-143.60;79.71
68329;BME280;55182;56.864;60.554;2023-02-10T08:37:35;76673.38;;;-143.60;79.52
68329;BME280;55182;56.864;60.554;2023-02-10T08:40:01;76669.34;;;-143.60;79.52
68329;BME280;55182;56.864;60.554;2023-02-10T08:42:27;76661.31;;;-143.60;79.51
68329;BME280;55182;56.864;60.554;2023-02-10T08:44:53;76677.38;;;-143.60;79.22
68329;BME280;55182;56.864;60.554;2023-02-10T08:47:18;76663.31;;;-143.60;79.32
68329;BME280;55182;56.864;60.554;2023-02-10T08:49:44;76671.34;;;-143.60;79.50
68329;BME280;55182;56.864;60.554;2023-02-10T08:52:09;76669.34;;;-143.60;79.58
68329;BME280;55182;56.864;60.554;2023-02-10T08:54:35;76661.31;;;-143.60;79.60
68329;BME280;55182;56.864;60.554;2023-02-10T08:57:01;76657.28;;;-143.60;79.33
68329;BME280;55182;56.864;60.554;2023-02-10T08:59:27;76661.31;;;-143.60;79.13
68329;BME280;55182;56.864;60.554;2023-02-10T09:01:53;76661.31;;;-143.60;79.12
68329;BME280;55182;56.864;60.554;2023-02-10T09:04:19;76659.28;;;-143.60;79.15
68329;BME280;55182;56.864;60.554;2023-02-10T09:06:45;76655.28;;;-143.60;79.34
68329;BME280;55182;56.864;60.554;2023-02-10T09:09:11;76657.28;;;-143.60;78.93
68329;BME280;55182;56.864;60.554;2023-02-10T09:11:37;76655.28;;;-143.60;78.97
68329;BME280;55182;56.864;60.554;2023-02-10T09:14:03;76645.22;;;-143.60;78.43
68329;BME280;55182;56.864;60.554;2023-02-10T09:16:28;76641.22;;;-143.60;78.46
68329;BME280;55182;56.864;60.554;2023-02-10T09:18:54;76633.16;;;-143.60;78.43
68329;BME280;55182;56.864;60.554;2023-02-10T09:21:19;76635.19;;;-143.60;78.49
68329;BME280;55182;56.864;60.554;2023-02-10T09:23:45;76635.19;;;-143.60;77.97
68329;BME280;55182;56.864;60.554;2023-02-10T09:26:10;76641.22;;;-143.60;77.99
68329;BME280;55182;56.864;60.554;2023-02-10T09:28:36;76641.22;;;-143.60;78.11
68329;BME280;55182;56.864;60.554;2023-02-10T09:31:05;76633.16;;;-143.60;77.97
68329;BME280;55182;56.864;60.554;2023-02-10T09:33:30;76637.19;;;-143.60;77.89
68329;BME280;55182;56.864;60.554;2023-02-10T09:35:56;76641.22;;;-143.60;77.95
68329;BME280;55182;56.864;60.554;2023-02-10T09:38:21;76647.25;;;-143.60;78.27
68329;BME280;55182;56.864;60.554;2023-02-10T09:40:54;76645.22;;;-143.60;77.97
68329;BME280;55182;56.864;60.554;2023-02-10T09:46:43;76665.31;;;-143.60;78.06
68329;BME280;55182;56.864;60.554;2023-02-10T09:53:52;76645.22;;;-143.60;78.21
68329;BME280;55182;56.864;60.554;2023-02-10T09:56:19;76641.22;;;-143.60;78.07
68329;BME280;55182;56.864;60.554;2023-02-10T09:58:48;76641.22;;;-143.60;78.28
68329;BME280;55182;56.864;60.554;2023-02-10T10:06:12;76635.19;;;-143.60;77.94
68329;BME280;55182;56.864;60.554;2023-02-10T10:08:43;76637.19;;;-143.60;78.20
68329;BME280;55182;56.864;60.554;2023-02-10T10:11:24;76621.13;;;-143.60;77.93
68329;BME280;55182;56.864;60.554;2023-02-10T10:13:50;76629.16;;;-143.60;78.32
68329;BME280;55182;56.864;60.554;2023-02-10T10:16:22;76631.16;;;-143.60;78.10
68329;BME280;55182;56.864;60.554;2023-02-10T10:21:29;76637.19;;;-143.60;78.30
68329;BME280;55182;56.864;60.554;2023-02-10T10:27:15;76627.13;;;-143.60;78.67
68329;BME280;55182;56.864;60.554;2023-02-10T10:29:53;76637.19;;;-143.60;78.66
68329;BME280;55182;56.864;60.554;2023-02-10T10:35:03;76635.19;;;-143.60;78.06
68329;BME280;55182;56.864;60.554;2023-02-10T10:37:30;76645.22;;;-143.60;78.07
68329;BME280;55182;56.864;60.554;2023-02-10T10:40:00;76637.19;;;-143.60;78.29
68329;BME280;55182;56.864;60.554;2023-02-10T10:44:59;76645.22;;;-143.60;78.50
68329;BME280;55182;56.864;60.554;2023-02-10T10:47:31;76647.25;;;-143.60;78.71
68329;BME280;55182;56.864;60.554;2023-02-10T10:49:59;76641.22;;;-143.60;78.28
68329;BME280;55182;56.864;60.554;2023-02-10T10:52:28;76651.25;;;-143.60;78.27
68329;BME280;55182;56.864;60.554;2023-02-10T10:54:55;76647.25;;;-143.60;78.23
68329;BME280;55182;56.864;60.554;2023-02-10T10:57:21;76645.22;;;-143.60;78.37
68329;BME280;55182;56.864;60.554;2023-02-10T10:59:49;76643.22;;;-143.60;78.72
68329;BME280;55182;56.864;60.554;2023-02-10T11:02:17;76639.19;;;-143.60;78.30
68329;BME280;55182;56.864;60.554;2023-02-10T11:04:43;76637.19;;;-143.60;78.33
68329;BME280;55182;56.864;60.554;2023-02-10T11:07:09;76645.22;;;-143.60;78.21
68329;BME280;55182;56.864;60.554;2023-02-10T11:09:36;76637.19;;;-143.60;78.26
68329;BME280;55182;56.864;60.554;2023-02-10T11:12:04;76643.22;;;-143.60;78.12
68329;BME280;55182;56.864;60.554;2023-02-10T11:14:36;76641.22;;;-143.60;78.04
68329;BME280;55182;56.864;60.554;2023-02-10T11:17:04;76647.25;;;-143.60;78.00
68329;BME280;55182;56.864;60.554;2023-02-10T11:19:31;76641.22;;;-143.60;77.89
68329;BME280;55182;56.864;60.554;2023-02-10T11:21:57;76637.19;;;-143.60;77.83
68329;BME280;55182;56.864;60.554;2023-02-10T11:24:24;76635.19;;;-143.60;78.05
68329;BME280;55182;56.864;60.554;2023-02-10T11:29:22;76649.25;;;-143.60;77.78
68329;BME280;55182;56.864;60.554;2023-02-10T11:31:49;76653.25;;;-143.60;77.76
68329;BME280;55182;56.864;60.554;2023-02-10T11:36:41;76659.28;;;-143.60;77.40
68329;BME280;55182;56.864;60.554;2023-02-10T11:39:20;76659.28;;;-143.60;77.68
68329;BME280;55182;56.864;60.554;2023-02-10T11:41:46;76653.25;;;-143.60;77.60
68329;BME280;55182;56.864;60.554;2023-02-10T11:46:53;76655.28;;;-143.60;78.07
68329;BME280;55182;56.864;60.554;2023-02-10T11:49:19;76659.28;;;-143.60;78.14
68329;BME280;55182;56.864;60.554;2023-02-10T11:51:51;76657.28;;;-143.60;78.25
68329;BME280;55182;56.864;60.554;2023-02-10T11:54:18;76661.31;;;-143.60;78.27
68329;BME280;55182;56.864;60.554;2023-02-10T11:56:45;76663.31;;;-143.60;78.37
68329;BME280;55182;56.864;60.554;2023-02-10T11:59:35;76669.34;;;-143.60;78.59
68329;BME280;55182;56.864;60.554;2023-02-10T12:20:25;76687.44;;;-143.60;77.35
68329;BME280;55182;56.864;60.554;2023-02-10T12:23:01;76687.44;;;-143.60;77.10
68329;BME280;55182;56.864;60.554;2023-02-10T12:25:36;76685.44;;;-143.60;77.05
68329;BME280;55182;56.864;60.554;2023-02-10T12:40:58;76695.47;;;-143.60;77.54
68329;BME280;55182;56.864;60.554;2023-02-10T12:43:32;76689.44;;;-143.60;77.65
68329;BME280;55182;56.864;60.554;2023-02-10T12:46:06;76693.47;;;-143.60;77.90
68329;BME280;55182;56.864;60.554;2023-02-10T12:53:34;76699.50;;;-143.60;77.47
68329;BME280;55182;56.864;60.554;2023-02-10T12:56:05;76701.50;;;-143.60;77.60
68329;BME280;55182;56.864;60.554;2023-02-10T12:58:40;76707.53;;;-143.60;77.68
68329;BME280;55182;56.864;60.554;2023-02-10T13:01:25;76707.53;;;-143.60;78.03
68329;BME280;55182;56.864;60.554;2023-02-10T13:03:53;76709.53;;;-143.60;77.60
68329;BME280;55182;56.864;60.554;2023-02-10T13:06:26;76717.56;;;-143.60;77.26
68329;BME280;55182;56.864;60.554;2023-02-10T13:08:58;76721.59;;;-143.60;77.39
68329;BME280;55182;56.864;60.554;2023-02-10T13:13:50;76719.59;;;-143.60;77.41
68329;BME280;55182;56.864;60.554;2023-02-10T13:16:20;76729.63;;;-143.60;77.63
68329;BME280;55182;56.864;60.554;2023-02-10T13:21:45;76731.66;;;-143.60;77.64
68329;BME280;55182;56.864;60.554;2023-02-10T13:24:19;76729.63;;;-143.60;77.92
68329;BME280;55182;56.864;60.554;2023-02-10T13:26:53;76737.69;;;-143.60;78.10
68329;BME280;55182;56.864;60.554;2023-02-10T13:34:51;76741.69;;;-143.60;77.68
68329;BME280;55182;56.864;60.554;2023-02-10T13:40:03;76749.75;;;-143.60;77.58
68329;BME280;55182;56.864;60.554;2023-02-10T13:42:30;76743.72;;;-143.60;77.75
68329;BME280;55182;56.864;60.554;2023-02-10T13:45:47;76753.75;;;-143.60;77.80
68329;BME280;55182;56.864;60.554;2023-02-10T13:48:00;76749.75;;;-143.60;77.57
68329;BME280;55182;56.864;60.554;2023-02-10T13:50:28;76745.72;;;-143.60;77.31
68329;BME280;55182;56.864;60.554;2023-02-10T13:53:05;76753.75;;;-143.60;76.98
68329;BME280;55182;56.864;60.554;2023-02-10T13:55:49;76749.75;;;-143.60;77.03
68329;BME280;55182;56.864;60.554;2023-02-10T13:58:26;76761.78;;;-143.60;76.90
68329;BME280;55182;56.864;60.554;2023-02-10T14:00:52;76757.78;;;-143.60;76.21
68329;BME280;55182;56.864;60.554;2023-02-10T14:03:24;76757.78;;;-143.60;76.46
68329;BME280;55182;56.864;60.554;2023-02-10T14:05:51;76759.78;;;-143.60;75.96
68329;BME280;55182;56.864;60.554;2023-02-10T14:11:00;76759.78;;;-143.60;75.83
68329;BME280;55182;56.864;60.554;2023-02-10T14:13:27;76757.78;;;-143.60;75.83